HALF-HOURLY OBSERVATIONS INDEX

084

East Gippsland

COMBIENBAR AWS

Site: 084143
Alt: 640.0m
64km NE of ORBOST


  Time     Wind        Temp  DP   Baro     Rain since   Rain past  Vis(m), Cloud(base in m), Weather
  local        km/h                         9am  last   hr   10m    
Mon 11:00  SSW  4/  9  17.3 11.3  1019.4    0.0   0.0   0.0   0.0   ----- 
Mon 11:30  SSW  4/ 11  18.5 12.0  1019.6    0.0   0.0   0.0   0.0   ----- 
Mon 12:00  SSW  4/  7  19.2 12.9  1019.7    0.0   0.0   0.0   0.0   ----- 
Mon 12:30    S  4/  7  20.1 13.1  1019.7    0.0   0.0   0.0   0.0   ----- 
Mon 13:00  SSW  6/ 13  20.0 12.5  1019.7    0.0   0.0   0.0   0.0   ----- 
Mon 13:30  SSW  6/ 13  19.9 13.1  1019.8    0.0   0.0   0.0   0.0   ----- 
Mon 14:00  SSW  6/ 11  18.7 11.8  1019.8    0.0   0.0   0.0   0.0   ----- 
Mon 14:30  SSW  4/  9  21.0 13.4  1019.8    0.0   0.0   0.0   0.0   ----- 
Mon 15:00  SSW  4/  9  19.9 13.1  1019.8    0.0   0.0   0.0   0.0   ----- 
Mon 15:30  SSW  6/  9  20.2 13.2  1019.6    0.0   0.0   0.0   0.0   ----- 
Mon 16:00  SSW  4/  9  19.5 12.3  1019.7    0.0   0.0   0.0   0.0   ----- 
Mon 16:30  SSW  4/ 13  19.4 12.2  1019.7    0.0   0.0   0.0   0.0   ----- 

GABO ISLAND LIGHTHOUSE

Site: 084016
Alt: 15.0m
14km E of MALLACOOTA


  Time     Wind        Temp  DP   Baro     Rain since   Rain past  Vis(m), Cloud(base in m), Weather
  local        km/h                         9am  last   hr   10m    
Mon 11:00  WSW 33/ 43  21.4 15.9  1017.2    0.0   0.0   0.0   0.0   ----- 
Mon 11:30   SW 35/ 41  21.3 15.4  1017.4    0.0   0.0   0.0   0.0   ----- 
Mon 12:00  SSW 50/ 58  19.9 16.2  1017.4    0.0   0.0   0.0   0.0   ----- 
Mon 12:30   SW 56/ 69  18.4 16.4  1017.7    0.0   0.0   0.0   0.0   ----- 
Mon 13:00   SW 48/ 59  19.5 16.5  1017.8    0.0   0.0   0.0   0.0   ----- 
Mon 13:30   SW 46/ 61  20.5 15.7  1017.9    0.0   0.0   0.0   0.0   ----- 
Mon 14:00   SW 50/ 59  19.7 14.5  1018.1    0.0   0.0   0.0   0.0   ----- 
Mon 14:30   SW 48/ 58  20.0 15.2  1018.1    0.0   0.0   0.0   0.0   ----- 
Mon 15:00  SSW 45/ 52  19.5 13.9  1018.2    0.0   0.0   0.0   0.0   ----- 
Mon 15:30   SW 43/ 50  19.6 14.0  1018.2    0.0   0.0   0.0   0.0   ----- 
Mon 16:00   SW 43/ 52  19.7 13.6  1018.2    0.0   0.0   0.0   0.0   ----- 
Mon 16:30   SW 43/ 48  19.9 13.8  1018.2    0.0   0.0   0.0   0.0   ----- 

GELANTIPY

Site: 084142
Alt: 755.0m
56km NNW of ORBOST


  Time     Wind        Temp  DP   Baro     Rain since   Rain past  Vis(m), Cloud(base in m), Weather
  local        km/h                         9am  last   hr   10m    
Mon 11:00  WSW  9/ 17  15.6 12.0  1019.6    0.0   0.0   0.0   0.0   ----- 
Mon 11:30   SW  9/ 17  16.6 12.6  1019.6    0.0   0.0   0.0   0.0   ----- 
Mon 12:00  SSW 11/ 17  17.4 12.7  1019.7    0.0   0.0   0.0   0.0   ----- 
Mon 12:30   SW 11/ 19  17.6 12.7  1019.4    0.0   0.0   0.0   0.0   ----- 
Mon 13:00    S 13/ 20  18.2 12.4  1019.4    0.0   0.0   0.0   0.0   ----- 
Mon 13:30    S 15/ 30  18.1 11.2  1019.4    0.0   0.0   0.0   0.0   ----- 
Mon 14:00  SSE 15/ 32  19.0 13.0  1019.4    0.0   0.0   0.0   0.0   ----- 
Mon 14:30    S 15/ 24  18.6 11.9  1019.3    0.0   0.0   0.0   0.0   ----- 
Mon 15:00    S 13/ 20  18.7 12.0  1019.1    0.0   0.0   0.0   0.0   ----- 
Mon 15:30  SSE 15/ 24  18.5 11.3  1019.0    0.0   0.0   0.0   0.0   ----- 
Mon 16:00    S 13/ 22  18.4 11.0  1019.0    0.0   0.0   0.0   0.0   ----- 
Mon 16:30  SSW 13/ 20  17.8 10.9  1018.9    0.0   0.0   0.0   0.0   ----- 

MALLACOOTA

Site: 084084
Alt: 22.0m
5km SSW of MALLACOOTA


  Time     Wind        Temp  DP   Baro     Rain since   Rain past  Vis(m), Cloud(base in m), Weather
  local        km/h                         9am  last   hr   10m    
Mon 11:00   SW 19/ 37  21.1 15.2  1017.4    0.0   0.0   0.0   0.0   ----- 
Mon 11:30  WSW 17/ 30  21.4 15.7  1017.4    0.0   0.0   0.0   0.0   ----- 
Mon 12:00   SW 22/ 35  21.8 15.6  1017.5    0.0   0.0   0.0   0.0   ----- 
Mon 12:30  SSW 26/ 39  18.6 15.8  1018.1    0.0   0.0   0.0   0.0   ----- 
Mon 13:00   SW 19/ 35  19.8 15.9  1018.1    0.0   0.0   0.0   0.0   ----- 
Mon 13:30   SW 26/ 43  20.8 16.2  1018.2    0.0   0.0   0.0   0.0   ----- 
Mon 14:00  SSW 28/ 45  20.7 15.0  1018.3    0.0   0.0   0.0   0.0   ----- 
Mon 14:30  SSW 24/ 33  20.5 14.8  1018.3    0.0   0.0   0.0   0.0   ----- 
Mon 14:39  SSW 28/ 46  20.8 14.7  1018.3    0.0   0.0  ----   0.0   ----- 
Mon 15:00  SSW 26/ 41  20.4 14.1  1018.4    0.0   0.0   0.0   0.0   ----- 
Mon 15:30  SSW 24/ 37  19.9 14.0  1018.4    0.0   0.0   0.0   0.0   ----- 
Mon 16:00  SSW 26/ 39  20.2 14.1  1018.3    0.0   0.0   0.0   0.0   ----- 
Mon 16:30  SSW 24/ 39  20.6 13.8  1018.5    0.0   0.0   0.0   0.0   ----- 

MOUNT NOWA NOWA

Site: 084144
Alt: 350.0m
32km W of ORBOST


  Time     Wind        Temp  DP   Baro     Rain since   Rain past  Vis(m), Cloud(base in m), Weather
  local        km/h                         9am  last   hr   10m    
Mon 11:00   SW  4/  9  15.8----  ------    0.0   0.0   0.0   0.0   ----- 
Mon 11:30   SW  4/  6  15.9 14.6  ------    0.0   0.0   0.0   0.0   ----- 
Mon 12:00  SSW  6/  7  15.7----  ------    0.0   0.0   0.0   0.0   ----- 
Mon 12:30  SSW  6/  9  15.2 15.1  ------    0.0   0.0   0.0   0.0   ----- 
Mon 13:00    S  4/  9  16.2 14.9  ------    0.0   0.0   0.0   0.0   ----- 
Mon 13:30    S  9/ 17  17.0 13.4  ------    0.0   0.0   0.0   0.0   ----- 
Mon 14:00    S  6/ 15  17.9 12.6  ------    0.0   0.0   0.0   0.0   ----- 
Mon 14:30  SSE  7/ 17  17.9 12.4  ------    0.0   0.0   0.0   0.0   ----- 
Mon 15:00   SE  7/ 15  18.3 13.0  ------    0.0   0.0   0.0   0.0   ----- 
Mon 15:30    S 11/ 17  18.1 13.2  ------    0.0   0.0   0.0   0.0   ----- 
Mon 16:00  SSE  9/ 17  18.6 12.8  ------    0.0   0.0   0.0   0.0   ----- 
Mon 16:30  SSE  7/ 15  17.6 12.7  ------    0.0   0.0   0.0   0.0   ----- 

ORBOST

Site: 084145
Alt: 62.7m
1km NNE of ORBOST


  Time     Wind        Temp  DP   Baro     Rain since   Rain past  Vis(m), Cloud(base in m), Weather
  local        km/h                         9am  last   hr   10m    
Mon 11:00  WSW 11/ 17  17.5 15.0  1019.1    0.0   0.0   0.0   0.0   ----- 
Mon 11:30   SW 13/ 19  16.8 15.8  1019.2    0.0   0.0   0.0   0.0   ----- 
Mon 12:00   SW 11/ 17  16.7 15.4  1019.5    0.0   0.0   0.0   0.0   ----- 
Mon 12:30   SW 11/ 19  17.1 14.6  1019.5    0.0   0.0   0.0   0.0   ----- 
Mon 13:00  WSW 11/ 17  17.8 14.3  1019.6    0.0   0.0   0.0   0.0   ----- 
Mon 13:30   SW 11/ 20  18.6 13.5  1019.6    0.0   0.0   0.0   0.0   ----- 
Mon 14:00   SW 11/ 17  19.9 14.0  1019.5    0.0   0.0   0.0   0.0   ----- 
Mon 14:30  SSW 13/ 22  19.1 13.3  1019.5    0.0   0.0   0.0   0.0   ----- 
Mon 15:00    S 11/ 19  19.7 13.4  1019.1    0.0   0.0   0.0   0.0   ----- 
Mon 15:30    S  9/ 19  19.4 13.1  1019.2    0.0   0.0   0.0   0.0   ----- 
Mon 16:00    S 11/ 20  19.2 12.5  1019.0    0.0   0.0   0.0   0.0   ----- 
Mon 16:30  SSW 11/ 17  18.9 11.9  1019.0    0.0   0.0   0.0   0.0   -----